Birmingham-Shuttlesworth International Airport
KBHM : now visible

Aeroporto :











RITROVATECI SU...

 
LOGIN :

Iscrizione | Disclaimer

   EN    FR    IT 

 









Sommario :    VFR   VFR Marginale   IFR   IFR Intensivo   IFR Molto Intensivo
Visibilità : 
Base nubi : 
>= 8 km
>= 3000ft
5 / 8 km
1000 / 3000 ft
1500m / 5 km
500 / 1000 ft
800 / 1500m
200 / 500 ft
< 800m
< 200 ft
Simboli :   Temporali  Nebbia  Neve Forte  Precipitazioni Forti  Vento > 20 kt







- Altitudine del aeroporto : 650 ft
- Codice IATA : BHM


KBHM - Birmingham-Shuttlesworth International

ULTIMO METAR :
  • 190653Z 04004KT 10SM CLR 06/M06 A3035 RMK AO2 SLP276 T00561061

METARs OBSOLETI :
  • 190553Z 05003KT 10SM SCT250 07/M07 A3035 RMK AO2 SLP276 T00671067 10106 20067 401720022 50000
  • 190453Z 02007KT 10SM SCT250 08/M07 A3036 RMK AO2 SLP279 T00831072

TAF KBHM
Valido dal 19 a 06 ore il 20 a 06 ore UTC


190520Z 1906/2006 02008KT P6SM OVC250
FM191500 05009KT P6SM SCT250
FM200000 05002KT P6SM SKC
FIR KZTL / America del Nord



MetMap, La meteo Aeronautica in un colpo d'occhio ! - Copyright ORBIFLY Dicembre 2007 - Disclaimer

ORBIFLY MET'MAP TEAM :

Programmazione e sviluppo : Alexandra Zaïnal
Concezione e sviluppo : Baudouin d'Aumeries
Co-Programmazione e sviluppo : Marc-Olivier Méhu
Supporto tecnico e logistico : Manuel Goepfert
Aiuto per la traduzione : Arnaldo La Scala

Contatto : metmap@orbifly.com




FONTI E CREDITI :

   NOAA       Earth
Advisory